Time;durP1;ratioP1;P1;durP2;ratioP2;P2;SDS_P1;SDS_P2;PMS_P1;PMS_P2;Temp;Humidity;BMP_temperature;BMP_pressure;BME280_temperature;BME280_humidity;BME280_pressure;Samples;Min_cycle;Max_cycle;Signal;HPM_P1;HPM_P2
2021/04/16 00:01:32;;;;;;;6.82;4.97;;;0.20;99.90;;;;;;4789619;29;20057;-78
2021/04/16 00:04:03;;;;;;;7.25;5.50;;;0.20;99.90;;;;;;4777024;29;20056;-78
2021/04/16 00:06:29;;;;;;;6.68;4.60;;;0.20;99.90;;;;;;4776899;29;20141;-78
2021/04/16 00:09:02;;;;;;;7.82;5.72;;;0.20;99.90;;;;;;4790613;29;20039;-78
2021/04/16 00:11:33;;;;;;;6.60;4.70;;;0.20;99.90;;;;;;4791860;29;20039;-79
2021/04/16 00:14:00;;;;;;;6.63;4.93;;;0.20;99.90;;;;;;4791771;29;20057;-78
2021/04/16 00:16:32;;;;;;;6.72;4.57;;;0.20;99.90;;;;;;4791402;29;20107;-78
2021/04/16 00:18:59;;;;;;;7.32;4.85;;;0.20;99.90;;;;;;4793167;29;20118;-79
2021/04/16 00:21:27;;;;;;;8.88;5.47;;;0.20;99.90;;;;;;4795534;29;20566;-79
2021/04/16 00:23:53;;;;;;;8.32;6.07;;;0.20;99.90;;;;;;4795332;29;20610;-78
2021/04/16 00:26:25;;;;;;;7.00;5.22;;;0.20;99.90;;;;;;4780485;29;20484;-78
2021/04/16 00:28:56;;;;;;;8.50;4.70;;;0.20;99.90;;;;;;4780660;29;20418;-78
2021/04/16 00:31:26;;;;;;;7.80;5.15;;;0.10;99.90;;;;;;4794988;29;20050;-78
2021/04/16 00:33:59;;;;;;;6.72;4.93;;;0.10;99.90;;;;;;4781188;29;20053;-78
2021/04/16 00:36:28;;;;;;;8.27;5.53;;;0.00;99.90;;;;;;4794963;29;20120;-78
2021/04/16 00:38:54;;;;;;;5.80;4.72;;;0.00;99.90;;;;;;4795026;29;20119;-78
2021/04/16 00:41:26;;;;;;;7.20;4.85;;;-0.10;99.90;;;;;;4794721;29;20054;-78
2021/04/16 00:43:53;;;;;;;6.72;5.20;;;-0.10;99.90;;;;;;4793900;29;20043;-78
2021/04/16 00:46:45;;;;;;;8.32;5.10;;;-0.10;99.90;;;;;;4779545;29;20154;-79
2021/04/16 00:49:18;;;;;;;7.95;5.25;;;-0.20;99.90;;;;;;4793223;29;20142;-78
2021/04/16 00:51:57;;;;;;;6.32;4.90;;;-0.20;99.90;;;;;;4793731;29;20050;-78
2021/04/16 00:54:28;;;;;;;8.15;5.43;;;-0.30;99.90;;;;;;4779273;29;20115;-78
2021/04/16 00:57:00;;;;;;;6.82;4.57;;;-0.30;99.90;;;;;;4793970;29;20058;-78
2021/04/16 00:59:32;;;;;;;7.07;5.80;;;-0.30;99.90;;;;;;4789396;29;20053;-78
2021/04/16 01:02:04;;;;;;;8.48;4.97;;;-0.30;99.90;;;;;;4793297;29;20059;-78
2021/04/16 01:04:32;;;;;;;5.82;4.60;;;-0.30;99.90;;;;;;4793778;29;20057;-79
2021/04/16 01:07:01;;;;;;;6.60;4.57;;;-0.30;99.90;;;;;;4778504;29;20051;-79
2021/04/16 01:09:28;;;;;;;6.80;5.28;;;-0.30;99.90;;;;;;4777886;29;20074;-78
2021/04/16 01:12:03;;;;;;;7.95;5.82;;;-0.30;99.90;;;;;;4793191;29;20080;-78
2021/04/16 01:14:38;;;;;;;8.32;5.80;;;-0.30;99.90;;;;;;4792874;29;20134;-78
2021/04/16 01:17:07;;;;;;;8.25;6.40;;;-0.40;99.90;;;;;;4778204;29;20074;-79
2021/04/16 01:19:50;;;;;;;14.18;6.70;;;-0.40;99.90;;;;;;4792746;29;20511;-78
2021/04/16 01:22:47;;;;;;;8.90;6.15;;;-0.50;99.90;;;;;;4777949;29;20104;-78
2021/04/16 01:25:20;;;;;;;8.43;6.55;;;-0.50;99.90;;;;;;4792208;29;20054;-78
2021/04/16 01:27:51;;;;;;;8.82;5.40;;;-0.50;99.90;;;;;;4791919;29;20127;-78
2021/04/16 01:30:22;;;;;;;8.80;5.90;;;-0.50;99.90;;;;;;4791983;29;20415;-78
2021/04/16 01:32:48;;;;;;;8.95;6.50;;;-0.60;99.90;;;;;;4777964;29;20111;-78
2021/04/16 01:35:26;;;;;;;7.07;4.85;;;-0.60;99.90;;;;;;4778604;29;20068;-78
2021/04/16 01:37:52;;;;;;;10.30;5.85;;;-0.70;99.90;;;;;;4777827;29;20059;-78
2021/04/16 01:40:20;;;;;;;8.70;6.10;;;-0.70;99.90;;;;;;4792765;29;20153;-78
2021/04/16 01:42:51;;;;;;;8.25;5.68;;;-0.70;99.90;;;;;;4793725;29;20039;-79
2021/04/16 01:45:26;;;;;;;10.05;6.63;;;-0.80;99.90;;;;;;4793156;29;20043;-78
2021/04/16 01:48:00;;;;;;;8.15;6.15;;;-0.80;99.90;;;;;;4791786;29;20093;-79
2021/04/16 01:50:28;;;;;;;10.43;7.25;;;-0.80;99.90;;;;;;4777548;29;20157;-78
2021/04/16 01:52:57;;;;;;;9.02;6.38;;;-0.80;99.90;;;;;;4777518;29;20584;-78
2021/04/16 01:55:28;;;;;;;;;;;-0.80;99.90;;;;;;4793048;29;20051;-78
2021/04/16 01:57:59;;;;;;;7.78;5.00;;;-0.90;99.90;;;;;;4792438;29;19925;-78
2021/04/16 02:00:31;;;;;;;8.23;5.45;;;-0.90;99.90;;;;;;4792394;29;20582;-79
2021/04/16 02:02:58;;;;;;;9.23;6.03;;;-0.90;99.90;;;;;;4793132;29;20807;-78
2021/04/16 02:05:24;;;;;;;10.90;6.75;;;-0.80;99.90;;;;;;4808596;29;20047;-78
2021/04/16 02:07:53;;;;;;;7.53;5.43;;;-0.90;99.90;;;;;;4792567;29;20050;-78
2021/04/16 02:10:24;;;;;;;8.85;6.03;;;-0.90;99.90;;;;;;4792823;29;20055;-78
2021/04/16 02:12:55;;;;;;;9.27;6.28;;;-0.90;99.90;;;;;;4792396;29;20046;-78
2021/04/16 02:15:22;;;;;;;13.13;7.05;;;-0.90;99.90;;;;;;4792002;29;20161;-79
2021/04/16 02:17:48;;;;;;;8.70;5.70;;;-0.90;99.90;;;;;;4791668;29;20481;-78
2021/04/16 02:20:18;;;;;;;7.28;5.55;;;-1.00;99.90;;;;;;4792456;29;20531;-79
2021/04/16 02:22:45;;;;;;;6.45;5.10;;;-1.00;99.90;;;;;;4792277;29;20057;-78
2021/04/16 02:25:16;;;;;;;8.43;6.50;;;-1.00;99.90;;;;;;4792669;29;20046;-79
2021/04/16 02:27:43;;;;;;;7.57;5.53;;;-1.10;99.90;;;;;;4791755;29;20093;-79
2021/04/16 02:30:16;;;;;;;8.38;5.75;;;-1.10;99.90;;;;;;4777490;29;20218;-78
2021/04/16 02:32:42;;;;;;;7.85;5.75;;;-1.10;99.90;;;;;;4792402;29;20530;-78
2021/04/16 02:35:14;;;;;;;8.63;7.40;;;-1.10;99.90;;;;;;4792113;29;20061;-78
2021/04/16 02:37:45;;;;;;;8.57;7.10;;;-1.20;99.90;;;;;;4792063;29;20055;-79
2021/04/16 02:40:19;;;;;;;8.80;7.43;;;-1.20;99.90;;;;;;4792508;29;20050;-78
2021/04/16 02:42:53;;;;;;;10.63;7.63;;;-1.20;99.90;;;;;;4791370;29;20127;-78
2021/04/16 02:45:23;;;;;;;10.82;9.15;;;-1.20;99.90;;;;;;4776987;29;20052;-78
2021/04/16 02:47:55;;;;;;;11.10;8.70;;;-1.20;99.90;;;;;;4791986;29;20047;-79
2021/04/16 02:50:29;;;;;;;9.40;7.53;;;-1.20;99.90;;;;;;4791538;29;20043;-78
2021/04/16 02:53:01;;;;;;;7.43;6.22;;;-1.30;99.90;;;;;;4791964;29;20051;-78
2021/04/16 02:55:32;;;;;;;8.82;5.65;;;-1.30;99.90;;;;;;4792430;29;20051;-78
2021/04/16 02:58:03;;;;;;;7.78;5.60;;;-1.30;99.90;;;;;;4778003;29;20054;-78
2021/04/16 03:00:34;;;;;;;7.97;5.18;;;-1.30;99.90;;;;;;4791979;29;20050;-79
2021/04/16 03:03:06;;;;;;;7.30;4.97;;;-1.30;99.90;;;;;;4777952;29;20047;-78
2021/04/16 03:05:32;;;;;;;6.72;5.07;;;-1.30;99.90;;;;;;4791800;29;20047;-78
2021/04/16 03:08:04;;;;;;;7.57;5.45;;;-1.20;99.90;;;;;;4791762;29;20066;-78
2021/04/16 03:10:37;;;;;;;8.18;5.85;;;-1.30;99.90;;;;;;4792295;29;20130;-78
2021/04/16 03:13:04;;;;;;;6.35;4.50;;;-1.30;99.90;;;;;;4776524;29;20478;-78
2021/04/16 03:15:31;;;;;;;6.60;5.13;;;-1.30;99.90;;;;;;4791707;29;20054;-79
2021/04/16 03:18:03;;;;;;;7.07;5.07;;;-1.30;99.90;;;;;;4791545;29;20126;-78
2021/04/16 03:20:35;;;;;;;6.68;4.93;;;-1.30;99.90;;;;;;4791778;29;20137;-78
2021/04/16 03:23:06;;;;;;;4.95;4.35;;;-1.40;99.90;;;;;;4791312;29;20599;-78
2021/04/16 03:25:32;;;;;;;7.10;4.90;;;-1.40;99.90;;;;;;4792294;29;20578;-78
2021/04/16 03:27:59;;;;;;;6.97;4.88;;;-1.40;99.90;;;;;;4776533;29;20149;-78
2021/04/16 03:30:31;;;;;;;7.28;4.78;;;-1.40;99.90;;;;;;4792952;29;20525;-78
2021/04/16 03:32:58;;;;;;;8.27;5.03;;;-1.50;99.90;;;;;;4776363;29;20149;-78
2021/04/16 03:35:24;;;;;;;9.50;5.60;;;-1.50;99.90;;;;;;4791536;29;20118;-79
2021/04/16 03:37:56;;;;;;;8.52;5.40;;;-1.50;99.90;;;;;;4791125;29;20064;-78
2021/04/16 03:40:31;;;;;;;8.10;5.28;;;-1.50;99.90;;;;;;4791051;29;20077;-78
2021/04/16 03:43:02;;;;;;;7.35;5.13;;;-1.50;99.90;;;;;;4790897;29;20047;-78
2021/04/16 03:45:29;;;;;;;7.38;5.10;;;-1.60;99.90;;;;;;4776492;29;20137;-78
2021/04/16 03:48:00;;;;;;;6.07;4.75;;;-1.60;99.90;;;;;;4790817;29;20422;-78
2021/04/16 03:50:32;;;;;;;6.75;4.97;;;-1.60;99.90;;;;;;4790830;29;20086;-78
2021/04/16 03:53:06;;;;;;;6.45;4.60;;;-1.70;99.90;;;;;;4790057;29;20160;-78
2021/04/16 03:55:38;;;;;;;5.40;4.30;;;-1.70;99.90;;;;;;4791429;29;20053;-78
2021/04/16 03:58:12;;;;;;;8.15;6.28;;;-1.70;99.90;;;;;;4790743;29;20046;-77
2021/04/16 04:00:43;;;;;;;;;;;-1.80;99.90;;;;;;4792882;29;20050;-78
2021/04/16 04:03:11;;;;;;;6.40;4.50;;;-1.80;99.90;;;;;;4791474;29;20035;-79
2021/04/16 04:05:38;;;;;;;6.22;4.50;;;-1.80;99.90;;;;;;4789971;29;20115;-78
2021/04/16 04:08:09;;;;;;;6.80;4.72;;;-1.80;99.90;;;;;;4790337;29;20047;-78
2021/04/16 04:10:37;;;;;;;7.82;4.95;;;-1.80;99.90;;;;;;4790454;29;20174;-78
2021/04/16 04:13:12;;;;;;;6.50;4.65;;;-1.80;99.90;;;;;;4778730;29;20044;-78
2021/04/16 04:15:43;;;;;;;8.02;4.82;;;-1.80;99.90;;;;;;4768431;30;20496;-78
2021/04/16 04:18:14;;;;;;;7.70;5.82;;;-1.90;99.90;;;;;;4767866;30;20062;-79
2021/04/16 04:20:45;;;;;;;8.13;5.00;;;-1.80;99.90;;;;;;4755693;30;20342;-78
2021/04/16 04:23:17;;;;;;;7.57;4.60;;;-1.80;99.90;;;;;;4769883;30;20050;-78
2021/04/16 04:25:48;;;;;;;8.60;4.90;;;-1.90;99.90;;;;;;4768993;30;20048;-78
2021/04/16 04:28:14;;;;;;;8.05;4.35;;;-1.90;99.90;;;;;;4768889;29;20161;-78
2021/04/16 04:30:46;;;;;;;7.20;5.05;;;-1.90;99.90;;;;;;4766039;29;20545;-77
2021/04/16 04:33:17;;;;;;;6.78;4.78;;;-1.90;99.90;;;;;;4766096;30;20079;-77
2021/04/16 04:35:48;;;;;;;6.13;4.43;;;-1.90;99.90;;;;;;4780721;30;20070;-78
2021/04/16 04:38:20;;;;;;;7.72;4.95;;;-1.90;99.90;;;;;;4766019;29;20052;-77
2021/04/16 04:40:51;;;;;;;8.10;5.20;;;-1.90;99.90;;;;;;4764947;29;20591;-78
2021/04/16 04:43:23;;;;;;;7.25;5.28;;;-1.90;99.90;;;;;;4766040;30;20048;-77
2021/04/16 04:45:55;;;;;;;8.85;5.82;;;-1.90;99.90;;;;;;4751089;30;20062;-77
2021/04/16 04:48:26;;;;;;;8.98;6.03;;;-1.80;99.90;;;;;;4750413;30;20044;-77
2021/04/16 04:50:53;;;;;;;9.65;6.45;;;-1.80;99.90;;;;;;4750513;30;20519;-77
2021/04/16 04:53:24;;;;;;;11.82;7.18;;;-1.80;99.90;;;;;;4764596;30;20047;-77
2021/04/16 04:55:50;;;;;;;9.63;6.38;;;-1.80;99.90;;;;;;4764293;30;20054;-77
2021/04/16 04:58:21;;;;;;;9.85;6.18;;;-1.80;99.90;;;;;;4750053;30;20062;-77
2021/04/16 05:00:53;;;;;;;10.80;6.25;;;-1.80;99.90;;;;;;4765343;30;20055;-77
2021/04/16 05:03:19;;;;;;;6.32;5.00;;;-1.80;99.90;;;;;;4764003;30;20047;-77
2021/04/16 05:05:45;;;;;;;6.85;5.00;;;-1.80;99.90;;;;;;4767915;30;20109;-77
2021/04/16 05:08:12;;;;;;;9.65;5.30;;;-1.90;99.90;;;;;;4756839;29;20054;-78
2021/04/16 05:10:43;;;;;;;8.52;5.22;;;-1.90;99.90;;;;;;4752583;30;20396;-77
2021/04/16 05:13:09;;;;;;;6.35;5.00;;;-1.80;99.90;;;;;;4752255;30;20048;-77
2021/04/16 05:15:35;;;;;;;10.27;6.38;;;-1.80;99.90;;;;;;4752481;30;20151;-77
2021/04/16 05:18:07;;;;;;;9.27;5.85;;;-1.80;99.90;;;;;;4752976;30;20132;-77
2021/04/16 05:20:33;;;;;;;9.98;5.25;;;-1.70;99.90;;;;;;4752514;30;20456;-77
2021/04/16 05:22:59;;;;;;;7.43;4.95;;;-1.70;99.90;;;;;;4752667;30;20069;-77
2021/04/16 05:25:30;;;;;;;7.47;5.20;;;-1.70;99.90;;;;;;4752476;30;20052;-77
2021/04/16 05:27:56;;;;;;;7.47;5.10;;;-1.70;99.90;;;;;;4752429;29;20082;-77
2021/04/16 05:30:28;;;;;;;9.15;4.95;;;-1.60;99.90;;;;;;4769605;29;20055;-77
2021/04/16 05:33:00;;;;;;;7.45;4.78;;;-1.60;99.90;;;;;;4782778;29;20491;-77
2021/04/16 05:35:31;;;;;;;8.90;5.82;;;-1.50;99.90;;;;;;4788050;29;20065;-77
2021/04/16 05:37:58;;;;;;;7.93;5.40;;;-1.50;99.90;;;;;;4787688;29;20069;-77
2021/04/16 05:40:25;;;;;;;9.10;5.28;;;-1.40;99.90;;;;;;4788051;29;20061;-77
2021/04/16 05:42:53;;;;;;;10.75;6.43;;;-1.40;99.90;;;;;;4787781;29;20486;-77
2021/04/16 05:45:19;;;;;;;12.90;8.38;;;-1.30;99.90;;;;;;4787753;29;20051;-77
2021/04/16 05:47:50;;;;;;;18.02;9.65;;;-1.30;99.90;;;;;;4788183;29;20046;-77
2021/04/16 05:50:18;;;;;;;18.25;9.63;;;-1.20;99.90;;;;;;4787176;29;20566;-77
2021/04/16 05:52:50;;;;;;;13.57;9.57;;;-1.20;99.90;;;;;;4782225;29;20078;-77
2021/04/16 05:55:16;;;;;;;15.68;9.40;;;-1.10;99.90;;;;;;4786329;29;20050;-77
2021/04/16 05:57:47;;;;;;;12.70;9.07;;;-1.10;99.90;;;;;;4787320;29;20395;-77
2021/04/16 06:00:19;;;;;;;14.27;8.95;;;-1.10;99.90;;;;;;4786903;29;20400;-77
2021/04/16 06:02:51;;;;;;;17.35;8.93;;;-1.00;99.90;;;;;;4788335;29;20507;-77
2021/04/16 06:05:22;;;;;;;12.57;8.68;;;-1.00;99.90;;;;;;4787723;29;20073;-77
2021/04/16 06:07:55;;;;;;;11.02;8.05;;;-0.90;99.90;;;;;;4787324;29;20402;-77
2021/04/16 06:10:27;;;;;;;11.13;8.43;;;-0.80;99.90;;;;;;4787515;29;20051;-78
2021/04/16 06:12:53;;;;;;;13.77;9.48;;;-0.80;99.90;;;;;;4787636;29;20062;-77
2021/04/16 06:15:26;;;;;;;10.00;7.65;;;-0.70;99.90;;;;;;4767327;29;20086;-77
2021/04/16 06:17:57;;;;;;;13.18;7.80;;;-0.60;99.90;;;;;;4774874;29;20575;-77
2021/04/16 06:20:31;;;;;;;13.93;7.90;;;-0.60;99.90;;;;;;4776960;29;20051;-77
2021/04/16 06:23:03;;;;;;;15.65;10.07;;;-0.50;99.90;;;;;;4786250;29;20137;-77
2021/04/16 06:25:34;;;;;;;17.02;11.52;;;-0.50;99.90;;;;;;4787007;29;20411;-77
2021/04/16 06:28:02;;;;;;;11.73;9.13;;;-0.40;99.90;;;;;;4787970;29;20181;-77
2021/04/16 06:30:34;;;;;;;14.00;8.85;;;-0.40;99.90;;;;;;4788389;29;20061;-77
2021/04/16 06:33:12;;;;;;;10.70;7.57;;;-0.30;99.90;;;;;;4786543;29;20494;-77
2021/04/16 06:36:06;;;;;;;10.10;6.55;;;-0.30;99.90;;;;;;4771718;29;20050;-77
2021/04/16 06:38:40;;;;;;;11.93;7.70;;;-0.20;99.90;;;;;;4785427;29;20049;-77
2021/04/16 06:41:26;;;;;;;11.30;8.20;;;-0.10;99.90;;;;;;4786703;29;20141;-77
2021/04/16 06:44:26;;;;;;;11.63;7.63;;;0.00;99.90;;;;;;4779043;29;20304;-76
2021/04/16 06:47:06;;;;;;;12.43;8.82;;;0.10;99.90;;;;;;4784951;29;20533;-77
2021/04/16 06:49:41;;;;;;;13.75;8.50;;;0.20;99.90;;;;;;4772811;29;20558;-77
2021/04/16 06:52:15;;;;;;;13.07;8.50;;;0.20;99.90;;;;;;4750553;30;20670;-76
2021/04/16 06:54:44;;;;;;;14.50;10.63;;;0.30;99.90;;;;;;4770848;29;20044;-76
2021/04/16 06:57:40;;;;;;;11.02;8.80;;;0.40;99.90;;;;;;4754371;30;20530;-76
2021/04/16 07:00:10;;;;;;;16.98;9.93;;;0.50;99.90;;;;;;4769645;30;20154;-77
2021/04/16 07:03:07;;;;;;;14.57;9.38;;;0.60;99.90;;;;;;4761772;29;20515;-77
2021/04/16 07:06:01;;;;;;;14.45;9.90;;;0.70;99.90;;;;;;4787279;29;20050;-77
2021/04/16 07:09:08;;;;;;;12.85;9.07;;;0.80;99.90;;;;;;4783052;29;20522;-77
2021/04/16 07:12:04;;;;;;;13.20;8.90;;;0.90;99.90;;;;;;4787740;29;20088;-77
2021/04/16 07:14:49;;;;;;;12.77;9.30;;;1.00;99.90;;;;;;4773356;29;20045;-77
2021/04/16 07:17:25;;;;;;;16.20;10.02;;;1.10;99.90;;;;;;4786267;29;20054;-76
2021/04/16 07:19:56;;;;;;;12.07;8.23;;;1.10;99.90;;;;;;4787659;29;20057;-77
2021/04/16 07:22:39;;;;;;;16.70;9.80;;;1.20;99.90;;;;;;4787839;29;20074;-76
2021/04/16 07:25:33;;;;;;;12.60;8.38;;;1.30;99.90;;;;;;4786103;29;20515;-77
2021/04/16 07:28:12;;;;;;;15.68;8.85;;;1.40;99.90;;;;;;4786159;29;20062;-77
2021/04/16 07:30:47;;;;;;;15.27;10.15;;;1.50;99.90;;;;;;4769292;29;20047;-77
2021/04/16 07:33:46;;;;;;;16.02;10.23;;;1.50;99.90;;;;;;4787542;29;20591;-76
2021/04/16 07:36:30;;;;;;;14.88;9.50;;;1.60;99.90;;;;;;4773282;29;20057;-77
2021/04/16 07:39:04;;;;;;;14.95;8.68;;;1.80;99.90;;;;;;4772013;29;20050;-76
2021/04/16 07:41:43;;;;;;;18.85;10.55;;;1.90;99.90;;;;;;4787242;29;20050;-76
2021/04/16 07:44:33;;;;;;;26.55;13.93;;;2.00;99.90;;;;;;4786378;29;20053;-77
2021/04/16 07:47:04;;;;;;;22.88;13.57;;;2.00;99.90;;;;;;4787724;29;20043;-77
2021/04/16 07:49:33;;;;;;;11.63;8.40;;;2.00;99.90;;;;;;4772503;29;20084;-76
2021/04/16 07:52:25;;;;;;;11.82;8.18;;;2.10;99.90;;;;;;4787449;29;20046;-77
2021/04/16 07:55:18;;;;;;;10.80;7.68;;;2.10;99.90;;;;;;4773118;29;20090;-77
2021/04/16 07:57:50;;;;;;;11.82;7.50;;;2.30;99.90;;;;;;4786802;29;20511;-77
2021/04/16 08:00:23;;;;;;;11.38;6.90;;;2.50;99.90;;;;;;4766778;30;20478;-76
2021/04/16 08:03:14;;;;;;;17.42;9.82;;;2.80;99.90;;;;;;4767107;30;20610;-76
2021/04/16 08:05:46;;;;;;;9.57;7.00;;;3.10;99.90;;;;;;4773441;29;20055;-76
2021/04/16 08:08:17;;;;;;;10.45;7.47;;;3.20;99.90;;;;;;4770317;30;20043;-77
2021/04/16 08:11:06;;;;;;;11.15;6.32;;;3.40;99.90;;;;;;4778445;29;20049;-77
2021/04/16 08:13:57;;;;;;;7.22;5.38;;;3.70;99.90;;;;;;4772788;29;20153;-77
2021/04/16 08:16:35;;;;;;;7.45;5.78;;;3.90;99.90;;;;;;4787394;29;20074;-77
2021/04/16 08:19:14;;;;;;;7.88;5.25;;;4.20;99.90;;;;;;4787233;29;20051;-77
2021/04/16 08:21:47;;;;;;;7.72;5.03;;;4.40;99.90;;;;;;4772303;29;20153;-77
2021/04/16 08:24:44;;;;;;;7.15;5.55;;;4.60;99.90;;;;;;4787737;29;20150;-78
2021/04/16 08:27:30;;;;;;;7.20;5.32;;;4.70;99.90;;;;;;4787729;29;20047;-77
2021/04/16 08:30:31;;;;;;;9.27;5.40;;;4.80;99.90;;;;;;4776185;29;20149;-77
2021/04/16 08:33:11;;;;;;;7.28;5.35;;;4.90;99.90;;;;;;4758588;30;20227;-76
2021/04/16 08:35:48;;;;;;;11.07;5.82;;;5.00;99.90;;;;;;4776090;30;20057;-78
2021/04/16 08:38:22;;;;;;;8.00;5.57;;;5.20;99.90;;;;;;4767856;30;20055;-78
2021/04/16 08:40:52;;;;;;;8.00;5.23;;;5.40;99.90;;;;;;4770254;30;20165;-78
2021/04/16 08:43:42;;;;;;;6.43;5.15;;;5.60;99.90;;;;;;4786707;30;20304;-78
2021/04/16 08:46:21;;;;;;;7.28;5.05;;;5.80;99.90;;;;;;4771574;30;20119;-78
2021/04/16 08:48:53;;;;;;;5.32;4.13;;;6.10;99.90;;;;;;4772526;29;20123;-79
2021/04/16 08:58:41;;;;;;;6.20;4.70;;;6.10;99.90;;;;;;4693828;30;20135;-78
2021/04/16 09:01:13;;;;;;;11.35;7.10;;;5.90;99.90;;;;;;4711146;30;20052;-79
2021/04/16 09:03:52;;;;;;;6.47;5.53;;;5.90;99.90;;;;;;4709303;30;20059;-78
2021/04/16 09:06:32;;;;;;;6.57;5.20;;;5.90;99.90;;;;;;4704342;30;20144;-79
2021/04/16 09:12:40;;;;;;;7.70;6.90;;;6.10;99.90;;;;;;4700249;30;20417;-77
2021/04/16 09:15:33;;;;;;;7.15;5.75;;;5.90;99.90;;;;;;4689674;30;20050;-79
2021/04/16 09:18:01;;;;;;;6.97;5.13;;;5.80;99.90;;;;;;4691023;30;20197;-78
2021/04/16 09:20:48;;;;;;;5.55;4.43;;;6.10;99.90;;;;;;4760993;30;20051;-78
2021/04/16 09:23:26;;;;;;;10.43;6.05;;;6.20;99.90;;;;;;4779073;30;20058;-79
2021/04/16 09:25:53;;;;;;;7.38;4.57;;;6.10;99.90;;;;;;4780741;30;20082;-78
2021/04/16 09:28:24;;;;;;;7.05;4.57;;;6.20;99.90;;;;;;4781977;30;20052;-78
2021/04/16 09:45:52;;;;;;;7.10;5.00;;;6.90;97.80;;;;;;5745810;24;20036;-81
2021/04/16 14:37:41;;;;;;;7.03;5.60;;;9.10;72.10;;;;;;4814727;29;20039;-80
2021/04/16 17:54:20;;;;;;;11.70;7.70;;;9.50;59.30;;;;;;4792299;30;20078;-81
2021/04/16 17:56:52;;;;;;;8.52;7.63;;;9.20;59.80;;;;;;4763515;30;20503;-80
2021/04/16 17:59:27;;;;;;;7.88;6.25;;;8.90;61.00;;;;;;4777425;30;20055;-79
2021/04/16 18:04:42;;;;;;;9.23;7.70;;;8.50;62.20;;;;;;4788090;29;20051;-79
2021/04/16 18:07:29;;;;;;;14.68;11.35;;;8.30;62.80;;;;;;4790863;29;20077;-80
2021/04/16 18:09:57;;;;;;;15.52;10.20;;;8.30;63.30;;;;;;4774729;30;20063;-79
2021/04/16 18:12:25;;;;;;;9.63;7.72;;;8.00;64.00;;;;;;4773901;30;20142;-80
2021/04/16 18:14:56;;;;;;;9.02;7.57;;;7.90;64.70;;;;;;4760217;30;20059;-79
2021/04/16 18:17:23;;;;;;;10.50;8.40;;;7.80;65.40;;;;;;4759369;30;20055;-80
2021/04/16 18:19:55;;;;;;;10.13;8.90;;;7.70;66.00;;;;;;4774029;30;20059;-78
2021/04/16 18:22:37;;;;;;;9.98;7.97;;;7.50;66.60;;;;;;4759423;30;20059;-79
2021/04/16 18:25:21;;;;;;;10.75;6.75;;;7.40;67.30;;;;;;4759547;30;20058;-80
2021/04/16 18:27:53;;;;;;;8.00;5.90;;;7.30;68.00;;;;;;4759678;30;20071;-79
2021/04/16 18:30:35;;;;;;;8.15;6.00;;;7.10;68.60;;;;;;4759976;30;20055;-79
2021/04/16 18:36:07;;;;;;;8.52;6.55;;;6.80;70.60;;;;;;4810043;24;20083;-79
2021/04/16 18:38:44;;;;;;;14.90;7.78;;;6.60;71.80;;;;;;4789692;30;20423;-79
2021/04/16 18:41:19;;;;;;;12.98;7.78;;;6.50;73.50;;;;;;4774310;30;20055;-79
2021/04/16 18:43:53;;;;;;;9.70;7.05;;;6.30;74.40;;;;;;4755775;30;20508;-79
2021/04/16 18:46:23;;;;;;;10.73;6.50;;;6.20;75.30;;;;;;4770278;30;20117;-79
2021/04/16 18:48:50;;;;;;;12.73;6.70;;;6.00;76.50;;;;;;4755772;30;20064;-79
2021/04/16 18:51:25;;;;;;;8.65;4.82;;;5.90;78.10;;;;;;4770174;30;20054;-79
2021/04/16 18:54:01;;;;;;;6.43;5.20;;;5.70;80.00;;;;;;4756400;30;20052;-79
2021/04/16 18:56:34;;;;;;;9.65;5.07;;;5.40;82.20;;;;;;4769712;30;20428;-79
2021/04/16 18:59:06;;;;;;;11.88;4.93;;;5.30;84.10;;;;;;4756178;30;20066;-79
2021/04/16 19:10:31;;;;;;;6.90;4.68;;;4.60;94.40;;;;;;5333196;24;20116;-79
2021/04/16 19:19:05;;;;;;;8.00;5.57;;;4.00;99.90;;;;;;5418450;24;20138;-80
2021/04/16 19:21:54;;;;;;;10.45;4.50;;;3.90;99.90;;;;;;4768295;29;20055;-80
2021/04/16 19:24:24;;;;;;;;;;;3.90;99.90;;;;;;4775740;29;20050;-80
2021/04/16 19:26:51;;;;;;;6.35;4.55;;;3.70;99.90;;;;;;4790768;29;19979;-80
2021/04/16 19:29:24;;;;;;;4.80;4.18;;;3.70;99.90;;;;;;4790291;29;20051;-80
2021/04/16 19:31:58;;;;;;;8.57;5.07;;;3.60;99.90;;;;;;4777168;29;20046;-80
2021/04/16 19:34:25;;;;;;;8.48;5.43;;;3.50;99.90;;;;;;4790882;29;20051;-80
2021/04/16 19:36:57;;;;;;;7.07;4.82;;;3.50;99.90;;;;;;4776440;29;20507;-80
2021/04/16 19:39:32;;;;;;;5.50;4.40;;;3.50;99.90;;;;;;4790536;29;20621;-80
2021/04/16 20:17:49;;;;;;;9.85;5.43;;;2.60;99.90;;;;;;4767753;30;20047;-80
2021/04/16 20:20:25;;;;;;;8.07;5.72;;;2.60;99.90;;;;;;4754714;30;20066;-80
2021/04/16 20:22:56;;;;;;;6.00;4.65;;;2.50;99.90;;;;;;4754011;30;20053;-80
2021/04/16 20:25:36;;;;;;;8.23;5.32;;;2.50;99.90;;;;;;4753690;30;20154;-80
2021/04/16 20:28:08;;;;;;;8.18;5.20;;;2.50;99.90;;;;;;4768550;30;20047;-80
2021/04/16 20:30:44;;;;;;;9.43;5.40;;;2.40;99.90;;;;;;4754227;30;20138;-81
2021/04/16 20:33:23;;;;;;;6.93;5.05;;;2.40;99.90;;;;;;4753976;30;20069;-79
2021/04/16 20:35:57;;;;;;;8.52;5.60;;;2.40;99.90;;;;;;4769998;30;20051;-79
2021/04/16 20:38:28;;;;;;;8.70;5.50;;;2.40;99.90;;;;;;4757122;30;20051;-80
2021/04/16 20:41:07;;;;;;;9.13;5.38;;;2.40;99.90;;;;;;4772092;30;20051;-80
2021/04/16 20:43:43;;;;;;;6.20;5.00;;;2.40;99.90;;;;;;4757446;30;20522;-79
2021/04/16 20:46:19;;;;;;;7.82;5.72;;;2.30;99.90;;;;;;4772961;30;20047;-82
2021/04/16 20:48:53;;;;;;;8.38;5.53;;;2.20;99.90;;;;;;4776119;30;20130;-80
2021/04/16 21:01:16;;;;;;;6.57;5.10;;;2.00;99.90;;;;;;5502840;24;20146;-78
2021/04/16 21:03:53;;;;;;;9.07;6.28;;;2.00;99.90;;;;;;4757373;30;20623;-78
2021/04/16 21:06:28;;;;;;;10.82;6.68;;;1.90;99.90;;;;;;4772253;30;20048;-78
2021/04/16 21:09:03;;;;;;;9.20;5.68;;;1.90;99.90;;;;;;4758110;30;20238;-79
2021/04/16 21:17:31;;;;;;;8.27;6.30;;;2.00;99.90;;;;;;4841042;24;20069;-79
2021/04/16 21:20:06;;;;;;;8.25;6.40;;;2.00;99.90;;;;;;4775078;30;20055;-79
2021/04/16 21:28:17;;;;;;;8.35;6.25;;;1.90;99.90;;;;;;5058340;24;20516;-78
2021/04/16 21:30:50;;;;;;;8.70;5.95;;;1.80;99.90;;;;;;4790869;30;20058;-80
2021/04/16 21:33:37;;;;;;;9.65;6.43;;;1.80;99.90;;;;;;4774530;30;20051;-78
2021/04/16 21:36:12;;;;;;;11.50;6.90;;;1.80;99.90;;;;;;4775584;30;20468;-78
2021/04/16 21:38:45;;;;;;;9.43;6.32;;;1.70;99.90;;;;;;4775423;30;20104;-78
2021/04/16 21:41:32;;;;;;;9.55;6.90;;;1.70;99.90;;;;;;4774591;30;20519;-78
2021/04/16 21:44:05;;;;;;;11.20;6.43;;;1.60;99.90;;;;;;4774446;30;20054;-80
2021/04/16 21:46:43;;;;;;;11.45;7.07;;;1.60;99.90;;;;;;4774342;29;20059;-78
2021/04/16 21:49:17;;;;;;;9.38;6.78;;;1.60;99.90;;;;;;4759991;30;20043;-78
2021/04/16 21:52:24;;;;;;;8.27;5.53;;;1.60;99.90;;;;;;4890066;24;20058;-76
2021/04/16 21:54:59;;;;;;;11.48;6.80;;;1.60;99.90;;;;;;4719603;30;20509;-78
2021/04/16 21:57:33;;;;;;;8.18;6.38;;;1.60;99.90;;;;;;4721345;30;20464;-78
2021/04/16 22:00:17;;;;;;;;;;;1.50;99.90;;;;;;4708031;30;20051;-78
2021/04/16 22:02:45;;;;;;;9.88;6.20;;;1.50;99.90;;;;;;4713027;30;19965;-77
2021/04/16 22:05:27;;;;;;;10.13;6.45;;;1.50;99.90;;;;;;4701524;30;20063;-77
2021/04/16 22:08:11;;;;;;;9.05;5.80;;;1.50;99.90;;;;;;4715879;30;20144;-77
2021/04/16 22:10:57;;;;;;;10.32;7.00;;;1.50;99.90;;;;;;4715784;30;20080;-77
2021/04/16 22:13:26;;;;;;;12.07;7.32;;;1.40;99.90;;;;;;4716200;30;20053;-77
2021/04/16 22:16:00;;;;;;;10.98;6.60;;;1.30;99.90;;;;;;4715710;30;20048;-77
2021/04/16 22:18:29;;;;;;;9.90;6.72;;;1.30;99.90;;;;;;4701096;30;20110;-77
2021/04/16 22:21:05;;;;;;;12.57;7.88;;;1.30;99.90;;;;;;4715993;30;20053;-77
2021/04/16 22:23:46;;;;;;;10.63;6.88;;;1.30;99.90;;;;;;4715187;30;20056;-78
2021/04/16 22:26:17;;;;;;;11.07;7.55;;;1.30;99.90;;;;;;4701579;30;20143;-77
2021/04/16 22:28:47;;;;;;;12.25;7.75;;;1.30;99.90;;;;;;4714994;30;20098;-77
2021/04/16 22:31:19;;;;;;;11.38;7.60;;;1.30;99.90;;;;;;4715844;30;20198;-77
2021/04/16 22:33:53;;;;;;;13.18;8.20;;;1.30;99.90;;;;;;4715147;30;20067;-77
2021/04/16 22:36:36;;;;;;;10.27;7.25;;;1.20;99.90;;;;;;4715888;30;20533;-77
2021/04/16 22:39:15;;;;;;;12.55;7.50;;;1.30;99.90;;;;;;4715073;30;20521;-77
2021/04/16 22:41:55;;;;;;;11.65;7.60;;;1.20;99.90;;;;;;4716415;30;20063;-77
2021/04/16 22:44:24;;;;;;;12.20;8.25;;;1.30;99.90;;;;;;4715314;30;20485;-77
2021/04/16 22:46:55;;;;;;;12.07;7.93;;;1.20;99.90;;;;;;4715857;30;20147;-77
2021/04/16 22:49:31;;;;;;;12.18;7.15;;;1.30;99.90;;;;;;4714662;30;20049;-77
2021/04/16 22:52:05;;;;;;;12.43;7.45;;;1.30;99.90;;;;;;4715530;30;20135;-77
2021/04/16 22:54:36;;;;;;;11.00;7.45;;;1.30;99.90;;;;;;4716204;30;20049;-77
2021/04/16 22:57:14;;;;;;;11.27;7.80;;;1.30;99.90;;;;;;4715764;30;20143;-77
2021/04/16 22:59:41;;;;;;;10.45;7.53;;;1.30;99.90;;;;;;4700066;30;20066;-77
2021/04/16 23:02:30;;;;;;;12.40;7.38;;;1.40;99.90;;;;;;4701763;30;20059;-77
2021/04/16 23:05:30;;;;;;;12.70;7.88;;;1.40;99.90;;;;;;4714884;30;20052;-77
2021/04/16 23:08:13;;;;;;;12.27;7.43;;;1.40;99.90;;;;;;4715175;30;20053;-78
2021/04/16 23:10:39;;;;;;;12.68;8.18;;;1.40;99.90;;;;;;4715178;30;20053;-77
2021/04/16 23:13:21;;;;;;;11.88;7.43;;;1.50;99.90;;;;;;4716095;30;20061;-77